sensor_id;sensor_type;location;lat;lon;timestamp;temperature;humidity
55135;DHT22;41031;44.750;11.308;2022-09-03T00:00:17;21.40;77.50
55135;DHT22;41031;44.750;11.308;2022-09-03T00:14:23;21.30;79.20
55135;DHT22;41031;44.750;11.308;2022-09-03T00:19:40;21.30;79.30
55135;DHT22;41031;44.750;11.308;2022-09-03T00:22:13;21.30;79.20
55135;DHT22;41031;44.750;11.308;2022-09-03T00:24:43;21.30;79.20
55135;DHT22;41031;44.750;11.308;2022-09-03T00:27:18;21.30;79.40
55135;DHT22;41031;44.750;11.308;2022-09-03T00:30:07;21.30;79.60
55135;DHT22;41031;44.750;11.308;2022-09-03T00:37:52;21.30;78.70
55135;DHT22;41031;44.750;11.308;2022-09-03T00:46:23;21.20;77.50
55135;DHT22;41031;44.750;11.308;2022-09-03T01:07:35;21.40;78.10
55135;DHT22;41031;44.750;11.308;2022-09-03T01:13:16;21.40;78.60
55135;DHT22;41031;44.750;11.308;2022-09-03T01:29:37;21.40;77.50
55135;DHT22;41031;44.750;11.308;2022-09-03T01:32:07;21.50;77.70
55135;DHT22;41031;44.750;11.308;2022-09-03T01:34:48;21.50;77.70
55135;DHT22;41031;44.750;11.308;2022-09-03T01:37:52;21.50;77.90
55135;DHT22;41031;44.750;11.308;2022-09-03T01:46:16;21.40;78.10
55135;DHT22;41031;44.750;11.308;2022-09-03T01:48:57;21.40;78.30
55135;DHT22;41031;44.750;11.308;2022-09-03T01:51:29;21.30;78.30
55135;DHT22;41031;44.750;11.308;2022-09-03T01:59:33;21.20;78.20
55135;DHT22;41031;44.750;11.308;2022-09-03T02:02:18;21.20;78.50
55135;DHT22;41031;44.750;11.308;2022-09-03T02:05:03;21.20;78.80
55135;DHT22;41031;44.750;11.308;2022-09-03T02:07:40;21.20;78.80
55135;DHT22;41031;44.750;11.308;2022-09-03T02:10:13;21.20;78.70
55135;DHT22;41031;44.750;11.308;2022-09-03T02:12:44;21.20;78.70
55135;DHT22;41031;44.750;11.308;2022-09-03T02:15:16;21.20;79.00
55135;DHT22;41031;44.750;11.308;2022-09-03T02:17:46;21.10;79.40
55135;DHT22;41031;44.750;11.308;2022-09-03T02:20:18;21.20;80.20
55135;DHT22;41031;44.750;11.308;2022-09-03T02:22:47;21.10;80.80
55135;DHT22;41031;44.750;11.308;2022-09-03T02:25:16;21.20;80.70
55135;DHT22;41031;44.750;11.308;2022-09-03T02:27:44;21.10;80.30
55135;DHT22;41031;44.750;11.308;2022-09-03T02:30:12;21.10;80.20
55135;DHT22;41031;44.750;11.308;2022-09-03T02:32:39;21.10;80.40
55135;DHT22;41031;44.750;11.308;2022-09-03T02:35:06;21.10;80.60
55135;DHT22;41031;44.750;11.308;2022-09-03T02:37:33;21.00;80.70
55135;DHT22;41031;44.750;11.308;2022-09-03T02:40:01;21.00;80.90
55135;DHT22;41031;44.750;11.308;2022-09-03T02:42:31;21.00;81.20
55135;DHT22;41031;44.750;11.308;2022-09-03T02:45:23;20.90;81.40
55135;DHT22;41031;44.750;11.308;2022-09-03T02:47:58;20.90;81.90
55135;DHT22;41031;44.750;11.308;2022-09-03T02:50:26;20.80;82.00
55135;DHT22;41031;44.750;11.308;2022-09-03T02:52:53;20.80;82.10
55135;DHT22;41031;44.750;11.308;2022-09-03T02:55:21;20.80;82.30
55135;DHT22;41031;44.750;11.308;2022-09-03T02:57:48;20.70;82.20
55135;DHT22;41031;44.750;11.308;2022-09-03T03:00:16;20.70;82.40
55135;DHT22;41031;44.750;11.308;2022-09-03T03:02:45;20.70;82.40
55135;DHT22;41031;44.750;11.308;2022-09-03T03:05:20;20.70;82.50
55135;DHT22;41031;44.750;11.308;2022-09-03T03:07:50;20.60;82.60
55135;DHT22;41031;44.750;11.308;2022-09-03T03:10:17;20.60;82.80
55135;DHT22;41031;44.750;11.308;2022-09-03T03:12:44;20.60;82.80
55135;DHT22;41031;44.750;11.308;2022-09-03T03:15:11;20.60;83.00
55135;DHT22;41031;44.750;11.308;2022-09-03T03:17:38;20.60;82.90
55135;DHT22;41031;44.750;11.308;2022-09-03T03:20:05;20.50;82.90
55135;DHT22;41031;44.750;11.308;2022-09-03T03:22:33;20.50;82.90
55135;DHT22;41031;44.750;11.308;2022-09-03T03:25:00;20.40;83.00
55135;DHT22;41031;44.750;11.308;2022-09-03T03:27:27;20.40;83.10
55135;DHT22;41031;44.750;11.308;2022-09-03T03:29:54;20.40;83.30
55135;DHT22;41031;44.750;11.308;2022-09-03T03:32:21;20.40;83.40
55135;DHT22;41031;44.750;11.308;2022-09-03T03:34:48;20.40;83.40
55135;DHT22;41031;44.750;11.308;2022-09-03T03:37:15;20.30;83.60
55135;DHT22;41031;44.750;11.308;2022-09-03T03:39:42;20.30;83.50
55135;DHT22;41031;44.750;11.308;2022-09-03T03:42:09;20.30;83.40
55135;DHT22;41031;44.750;11.308;2022-09-03T03:44:36;20.30;83.30
55135;DHT22;41031;44.750;11.308;2022-09-03T03:47:03;20.30;83.20
55135;DHT22;41031;44.750;11.308;2022-09-03T03:49:31;20.20;83.00
55135;DHT22;41031;44.750;11.308;2022-09-03T03:51:58;20.20;83.00
55135;DHT22;41031;44.750;11.308;2022-09-03T03:54:25;20.20;83.10
55135;DHT22;41031;44.750;11.308;2022-09-03T03:56:53;20.20;82.90
55135;DHT22;41031;44.750;11.308;2022-09-03T03:59:21;20.20;82.40
55135;DHT22;41031;44.750;11.308;2022-09-03T04:01:50;20.10;82.30
55135;DHT22;41031;44.750;11.308;2022-09-03T04:04:17;20.10;81.90
55135;DHT22;41031;44.750;11.308;2022-09-03T04:06:44;20.10;81.70
55135;DHT22;41031;44.750;11.308;2022-09-03T04:09:11;20.10;81.70
55135;DHT22;41031;44.750;11.308;2022-09-03T04:11:38;20.20;81.70
55135;DHT22;41031;44.750;11.308;2022-09-03T04:14:05;20.20;81.50
55135;DHT22;41031;44.750;11.308;2022-09-03T04:16:32;20.20;81.00
55135;DHT22;41031;44.750;11.308;2022-09-03T04:18:59;20.20;80.10
55135;DHT22;41031;44.750;11.308;2022-09-03T04:21:28;20.20;79.90
55135;DHT22;41031;44.750;11.308;2022-09-03T04:23:57;20.20;79.30
55135;DHT22;41031;44.750;11.308;2022-09-03T04:26:29;20.20;78.90
55135;DHT22;41031;44.750;11.308;2022-09-03T04:29:07;20.20;78.40
55135;DHT22;41031;44.750;11.308;2022-09-03T04:31:37;20.20;78.00
55135;DHT22;41031;44.750;11.308;2022-09-03T04:34:05;20.20;77.90
55135;DHT22;41031;44.750;11.308;2022-09-03T04:36:32;20.10;77.90
55135;DHT22;41031;44.750;11.308;2022-09-03T04:39:01;20.10;78.20
55135;DHT22;41031;44.750;11.308;2022-09-03T04:41:30;20.10;78.30
55135;DHT22;41031;44.750;11.308;2022-09-03T04:43:58;20.10;78.40
55135;DHT22;41031;44.750;11.308;2022-09-03T04:46:27;20.10;78.60
55135;DHT22;41031;44.750;11.308;2022-09-03T04:49:00;20.10;78.80
55135;DHT22;41031;44.750;11.308;2022-09-03T04:51:28;20.10;78.90
55135;DHT22;41031;44.750;11.308;2022-09-03T04:53:58;20.10;78.80
55135;DHT22;41031;44.750;11.308;2022-09-03T04:56:31;20.10;78.80
55135;DHT22;41031;44.750;11.308;2022-09-03T04:59:01;20.10;78.80
55135;DHT22;41031;44.750;11.308;2022-09-03T05:01:30;20.10;78.90
55135;DHT22;41031;44.750;11.308;2022-09-03T05:03:59;20.10;79.40
55135;DHT22;41031;44.750;11.308;2022-09-03T05:06:27;20.10;79.90
55135;DHT22;41031;44.750;11.308;2022-09-03T05:08:55;20.10;80.10
55135;DHT22;41031;44.750;11.308;2022-09-03T05:11:23;20.20;80.00
55135;DHT22;41031;44.750;11.308;2022-09-03T05:13:53;20.20;79.40
55135;DHT22;41031;44.750;11.308;2022-09-03T05:16:21;20.20;79.30
55135;DHT22;41031;44.750;11.308;2022-09-03T05:18:54;20.20;79.30
55135;DHT22;41031;44.750;11.308;2022-09-03T05:21:22;20.30;79.30
55135;DHT22;41031;44.750;11.308;2022-09-03T05:23:50;20.30;79.60
55135;DHT22;41031;44.750;11.308;2022-09-03T05:26:21;20.30;79.90
55135;DHT22;41031;44.750;11.308;2022-09-03T05:28:55;20.40;79.80
55135;DHT22;41031;44.750;11.308;2022-09-03T05:31:24;20.40;79.40
55135;DHT22;41031;44.750;11.308;2022-09-03T05:33:54;20.40;78.90
55135;DHT22;41031;44.750;11.308;2022-09-03T05:36:26;20.40;78.50
55135;DHT22;41031;44.750;11.308;2022-09-03T05:38:53;20.40;78.00
55135;DHT22;41031;44.750;11.308;2022-09-03T05:41:22;20.50;77.80
55135;DHT22;41031;44.750;11.308;2022-09-03T05:43:52;20.50;77.50
55135;DHT22;41031;44.750;11.308;2022-09-03T05:46:30;20.60;77.60
55135;DHT22;41031;44.750;11.308;2022-09-03T05:49:03;20.60;78.00
55135;DHT22;41031;44.750;11.308;2022-09-03T05:51:32;20.60;78.50
55135;DHT22;41031;44.750;11.308;2022-09-03T05:53:59;20.70;78.50
55135;DHT22;41031;44.750;11.308;2022-09-03T05:56:28;20.70;78.70
55135;DHT22;41031;44.750;11.308;2022-09-03T05:58:59;20.70;78.70
55135;DHT22;41031;44.750;11.308;2022-09-03T06:01:32;20.80;78.10
55135;DHT22;41031;44.750;11.308;2022-09-03T06:04:09;20.80;78.30
55135;DHT22;41031;44.750;11.308;2022-09-03T06:06:39;20.80;78.40
55135;DHT22;41031;44.750;11.308;2022-09-03T06:09:11;20.80;78.50
55135;DHT22;41031;44.750;11.308;2022-09-03T06:11:40;20.80;78.70
55135;DHT22;41031;44.750;11.308;2022-09-03T06:14:11;20.80;78.60
55135;DHT22;41031;44.750;11.308;2022-09-03T06:16:40;20.80;78.50
55135;DHT22;41031;44.750;11.308;2022-09-03T06:19:09;20.80;78.60
55135;DHT22;41031;44.750;11.308;2022-09-03T06:21:37;20.80;78.10
55135;DHT22;41031;44.750;11.308;2022-09-03T06:24:14;20.70;78.20
55135;DHT22;41031;44.750;11.308;2022-09-03T06:26:41;20.70;78.50
55135;DHT22;41031;44.750;11.308;2022-09-03T06:29:10;20.80;78.80
55135;DHT22;41031;44.750;11.308;2022-09-03T06:31:37;20.80;78.90
55135;DHT22;41031;44.750;11.308;2022-09-03T06:34:05;20.90;79.00
55135;DHT22;41031;44.750;11.308;2022-09-03T06:36:32;21.00;79.10
55135;DHT22;41031;44.750;11.308;2022-09-03T06:39:00;21.10;79.20
55135;DHT22;41031;44.750;11.308;2022-09-03T06:41:29;21.20;79.10
55135;DHT22;41031;44.750;11.308;2022-09-03T06:44:00;21.40;78.80
55135;DHT22;41031;44.750;11.308;2022-09-03T06:46:30;21.50;78.90
55135;DHT22;41031;44.750;11.308;2022-09-03T06:48:58;21.50;79.10
55135;DHT22;41031;44.750;11.308;2022-09-03T06:51:28;21.70;79.30
55135;DHT22;41031;44.750;11.308;2022-09-03T06:54:02;21.80;79.00
55135;DHT22;41031;44.750;11.308;2022-09-03T06:56:30;21.90;78.80
55135;DHT22;41031;44.750;11.308;2022-09-03T06:59:10;22.00;78.80
55135;DHT22;41031;44.750;11.308;2022-09-03T07:01:38;22.10;78.80
55135;DHT22;41031;44.750;11.308;2022-09-03T07:04:11;22.30;78.60
55135;DHT22;41031;44.750;11.308;2022-09-03T07:06:39;22.40;76.20
55135;DHT22;41031;44.750;11.308;2022-09-03T07:09:09;22.60;75.40
55135;DHT22;41031;44.750;11.308;2022-09-03T07:11:37;22.70;75.20
55135;DHT22;41031;44.750;11.308;2022-09-03T07:14:12;22.80;74.70
55135;DHT22;41031;44.750;11.308;2022-09-03T07:16:39;22.80;74.30
55135;DHT22;41031;44.750;11.308;2022-09-03T07:19:08;22.90;74.70
55135;DHT22;41031;44.750;11.308;2022-09-03T07:21:36;23.10;75.20
55135;DHT22;41031;44.750;11.308;2022-09-03T07:24:04;23.30;75.00
55135;DHT22;41031;44.750;11.308;2022-09-03T07:26:37;23.50;74.70
55135;DHT22;41031;44.750;11.308;2022-09-03T07:29:06;23.70;73.50
55135;DHT22;41031;44.750;11.308;2022-09-03T07:31:38;23.80;72.70
55135;DHT22;41031;44.750;11.308;2022-09-03T07:34:11;23.80;72.80
55135;DHT22;41031;44.750;11.308;2022-09-03T07:36:41;24.00;72.70
55135;DHT22;41031;44.750;11.308;2022-09-03T07:39:10;23.90;72.00
55135;DHT22;41031;44.750;11.308;2022-09-03T07:41:38;23.90;72.10
55135;DHT22;41031;44.750;11.308;2022-09-03T07:44:07;24.00;72.60
55135;DHT22;41031;44.750;11.308;2022-09-03T07:46:36;24.00;72.80
55135;DHT22;41031;44.750;11.308;2022-09-03T07:49:04;24.00;72.90
55135;DHT22;41031;44.750;11.308;2022-09-03T07:51:36;24.10;72.70
55135;DHT22;41031;44.750;11.308;2022-09-03T07:54:09;24.10;72.60
55135;DHT22;41031;44.750;11.308;2022-09-03T07:56:39;24.20;72.50
55135;DHT22;41031;44.750;11.308;2022-09-03T07:59:07;24.20;72.60
55135;DHT22;41031;44.750;11.308;2022-09-03T08:01:35;24.30;72.60
55135;DHT22;41031;44.750;11.308;2022-09-03T08:04:05;24.30;72.70
55135;DHT22;41031;44.750;11.308;2022-09-03T08:06:37;24.40;72.90
55135;DHT22;41031;44.750;11.308;2022-09-03T08:09:07;24.50;72.90
55135;DHT22;41031;44.750;11.308;2022-09-03T08:11:37;24.50;72.20
55135;DHT22;41031;44.750;11.308;2022-09-03T08:14:07;24.60;71.70
55135;DHT22;41031;44.750;11.308;2022-09-03T08:16:36;24.60;71.60
55135;DHT22;41031;44.750;11.308;2022-09-03T08:19:04;24.80;71.90
55135;DHT22;41031;44.750;11.308;2022-09-03T08:21:31;24.80;71.50
55135;DHT22;41031;44.750;11.308;2022-09-03T08:23:58;24.90;71.40
55135;DHT22;41031;44.750;11.308;2022-09-03T08:26:34;25.00;71.20
55135;DHT22;41031;44.750;11.308;2022-09-03T08:29:02;25.20;70.90
55135;DHT22;41031;44.750;11.308;2022-09-03T08:31:30;25.30;69.70
55135;DHT22;41031;44.750;11.308;2022-09-03T08:33:59;25.40;69.30
55135;DHT22;41031;44.750;11.308;2022-09-03T08:36:31;25.50;69.10
55135;DHT22;41031;44.750;11.308;2022-09-03T08:39:01;25.60;68.80
55135;DHT22;41031;44.750;11.308;2022-09-03T08:47:40;25.70;68.60
55135;DHT22;41031;44.750;11.308;2022-09-03T08:55:30;26.30;67.50
55135;DHT22;41031;44.750;11.308;2022-09-03T08:58:07;26.50;67.20
55135;DHT22;41031;44.750;11.308;2022-09-03T09:11:57;27.50;65.10
55135;DHT22;41031;44.750;11.308;2022-09-03T09:22:28;27.80;65.00
55135;DHT22;41031;44.750;11.308;2022-09-03T09:24:59;27.70;64.70
55135;DHT22;41031;44.750;11.308;2022-09-03T09:27:27;27.70;64.20
55135;DHT22;41031;44.750;11.308;2022-09-03T09:29:58;27.70;64.10
55135;DHT22;41031;44.750;11.308;2022-09-03T09:32:28;27.70;64.70
55135;DHT22;41031;44.750;11.308;2022-09-03T09:34:57;27.70;64.10
55135;DHT22;41031;44.750;11.308;2022-09-03T09:37:24;27.80;64.00
55135;DHT22;41031;44.750;11.308;2022-09-03T09:39:59;27.70;64.80
55135;DHT22;41031;44.750;11.308;2022-09-03T09:42:26;27.80;64.40
55135;DHT22;41031;44.750;11.308;2022-09-03T09:44:56;28.00;63.90
55135;DHT22;41031;44.750;11.308;2022-09-03T09:47:37;28.20;63.60
55135;DHT22;41031;44.750;11.308;2022-09-03T09:50:18;28.20;63.20
55135;DHT22;41031;44.750;11.308;2022-09-03T09:53:03;28.20;62.90
55135;DHT22;41031;44.750;11.308;2022-09-03T09:55:34;28.10;64.00
55135;DHT22;41031;44.750;11.308;2022-09-03T09:58:07;28.00;63.50
55135;DHT22;41031;44.750;11.308;2022-09-03T10:00:40;28.10;63.70
55135;DHT22;41031;44.750;11.308;2022-09-03T10:03:10;28.10;63.50
55135;DHT22;41031;44.750;11.308;2022-09-03T10:05:39;28.10;64.00
55135;DHT22;41031;44.750;11.308;2022-09-03T10:08:18;28.00;63.40
55135;DHT22;41031;44.750;11.308;2022-09-03T10:10:48;27.90;63.20
55135;DHT22;41031;44.750;11.308;2022-09-03T10:13:29;27.80;64.10
55135;DHT22;41031;44.750;11.308;2022-09-03T10:16:05;27.70;64.40
55135;DHT22;41031;44.750;11.308;2022-09-03T10:21:34;27.50;64.80
55135;DHT22;41031;44.750;11.308;2022-09-03T10:26:44;27.30;66.40
55135;DHT22;41031;44.750;11.308;2022-09-03T10:29:17;27.20;66.00
55135;DHT22;41031;44.750;11.308;2022-09-03T10:31:57;27.20;66.30
55135;DHT22;41031;44.750;11.308;2022-09-03T10:37:25;27.20;66.60
55135;DHT22;41031;44.750;11.308;2022-09-03T10:46:01;27.30;67.60
55135;DHT22;41031;44.750;11.308;2022-09-03T10:51:27;27.30;67.10
55135;DHT22;41031;44.750;11.308;2022-09-03T11:02:14;26.80;65.70
55135;DHT22;41031;44.750;11.308;2022-09-03T11:07:38;26.70;67.00
55135;DHT22;41031;44.750;11.308;2022-09-03T11:10:24;26.60;67.00
55135;DHT22;41031;44.750;11.308;2022-09-03T11:13:07;26.60;67.40
55135;DHT22;41031;44.750;11.308;2022-09-03T11:15:38;26.60;67.20
55135;DHT22;41031;44.750;11.308;2022-09-03T11:18:24;26.60;67.60
55135;DHT22;41031;44.750;11.308;2022-09-03T11:20:56;26.60;67.70
55135;DHT22;41031;44.750;11.308;2022-09-03T11:23:32;26.60;68.10
55135;DHT22;41031;44.750;11.308;2022-09-03T11:26:07;26.70;68.30
55135;DHT22;41031;44.750;11.308;2022-09-03T11:34:44;26.90;68.50
55135;DHT22;41031;44.750;11.308;2022-09-03T11:37:18;26.90;68.20
55135;DHT22;41031;44.750;11.308;2022-09-03T11:40:18;26.90;67.90
55135;DHT22;41031;44.750;11.308;2022-09-03T11:42:47;27.00;68.10
55135;DHT22;41031;44.750;11.308;2022-09-03T11:45:35;27.00;68.90
55135;DHT22;41031;44.750;11.308;2022-09-03T11:48:17;27.10;69.30
55135;DHT22;41031;44.750;11.308;2022-09-03T11:50:53;27.20;69.50
55135;DHT22;41031;44.750;11.308;2022-09-03T11:53:25;27.30;68.40
55135;DHT22;41031;44.750;11.308;2022-09-03T11:55:59;27.50;68.20
55135;DHT22;41031;44.750;11.308;2022-09-03T11:58:36;27.60;67.30
55135;DHT22;41031;44.750;11.308;2022-09-03T12:01:10;27.70;66.50
55135;DHT22;41031;44.750;11.308;2022-09-03T12:03:52;27.80;66.70
55135;DHT22;41031;44.750;11.308;2022-09-03T12:12:57;27.90;66.10
55135;DHT22;41031;44.750;11.308;2022-09-03T12:18:06;28.00;66.10
55135;DHT22;41031;44.750;11.308;2022-09-03T12:20:58;28.10;65.10
55135;DHT22;41031;44.750;11.308;2022-09-03T12:23:39;28.10;65.00
55135;DHT22;41031;44.750;11.308;2022-09-03T12:26:13;28.20;65.10
55135;DHT22;41031;44.750;11.308;2022-09-03T12:28:44;28.20;65.60
55135;DHT22;41031;44.750;11.308;2022-09-03T12:31:19;28.30;65.40
55135;DHT22;41031;44.750;11.308;2022-09-03T12:33:59;28.30;64.90
55135;DHT22;41031;44.750;11.308;2022-09-03T12:36:56;28.40;65.30
55135;DHT22;41031;44.750;11.308;2022-09-03T12:39:26;28.40;64.20
55135;DHT22;41031;44.750;11.308;2022-09-03T12:42:27;28.50;64.60
55135;DHT22;41031;44.750;11.308;2022-09-03T12:45:04;28.50;64.50
55135;DHT22;41031;44.750;11.308;2022-09-03T12:47:38;28.50;65.20
55135;DHT22;41031;44.750;11.308;2022-09-03T12:50:09;28.60;65.10
55135;DHT22;41031;44.750;11.308;2022-09-03T12:52:38;28.60;65.10
55135;DHT22;41031;44.750;11.308;2022-09-03T13:00:46;28.60;64.10
55135;DHT22;41031;44.750;11.308;2022-09-03T13:05:49;28.80;64.20
55135;DHT22;41031;44.750;11.308;2022-09-03T13:08:23;28.90;63.60
55135;DHT22;41031;44.750;11.308;2022-09-03T13:10:55;29.00;63.10
55135;DHT22;41031;44.750;11.308;2022-09-03T13:13:34;29.10;62.20
55135;DHT22;41031;44.750;11.308;2022-09-03T13:35:11;29.50;61.80
55135;DHT22;41031;44.750;11.308;2022-09-03T13:37:44;29.50;61.40
55135;DHT22;41031;44.750;11.308;2022-09-03T13:40:23;29.40;61.40
55135;DHT22;41031;44.750;11.308;2022-09-03T13:45:50;29.30;63.40
55135;DHT22;41031;44.750;11.308;2022-09-03T13:48:29;29.30;62.00
55135;DHT22;41031;44.750;11.308;2022-09-03T13:51:52;29.20;61.10
55135;DHT22;41031;44.750;11.308;2022-09-03T13:54:33;29.20;60.90
55135;DHT22;41031;44.750;11.308;2022-09-03T14:00:08;29.20;61.10
55135;DHT22;41031;44.750;11.308;2022-09-03T14:05:46;29.00;61.50
55135;DHT22;41031;44.750;11.308;2022-09-03T14:09:15;29.00;60.90
55135;DHT22;41031;44.750;11.308;2022-09-03T14:11:29;28.90;61.40
55135;DHT22;41031;44.750;11.308;2022-09-03T14:16:57;28.80;61.80
55135;DHT22;41031;44.750;11.308;2022-09-03T14:22:20;28.70;62.30
55135;DHT22;41031;44.750;11.308;2022-09-03T14:24:58;28.60;62.50
55135;DHT22;41031;44.750;11.308;2022-09-03T14:27:31;28.70;62.30
55135;DHT22;41031;44.750;11.308;2022-09-03T14:30:03;28.70;62.00
55135;DHT22;41031;44.750;11.308;2022-09-03T14:47:26;28.70;63.00
55135;DHT22;41031;44.750;11.308;2022-09-03T15:00:33;28.40;63.50
55135;DHT22;41031;44.750;11.308;2022-09-03T15:11:19;28.20;64.10
55135;DHT22;41031;44.750;11.308;2022-09-03T15:13:52;28.10;64.00
55135;DHT22;41031;44.750;11.308;2022-09-03T15:16:27;28.10;64.30
55135;DHT22;41031;44.750;11.308;2022-09-03T15:19:11;28.00;64.60
55135;DHT22;41031;44.750;11.308;2022-09-03T15:27:08;28.00;65.10
55135;DHT22;41031;44.750;11.308;2022-09-03T15:30:06;27.90;65.50
55135;DHT22;41031;44.750;11.308;2022-09-03T15:35:41;27.80;65.90
55135;DHT22;41031;44.750;11.308;2022-09-03T15:38:24;27.70;66.30
55135;DHT22;41031;44.750;11.308;2022-09-03T15:40:57;27.70;66.90
55135;DHT22;41031;44.750;11.308;2022-09-03T15:43:31;27.60;67.00
55135;DHT22;41031;44.750;11.308;2022-09-03T15:46:27;27.50;67.20
55135;DHT22;41031;44.750;11.308;2022-09-03T15:49:17;27.40;67.10
55135;DHT22;41031;44.750;11.308;2022-09-03T15:52:02;27.40;67.60
55135;DHT22;41031;44.750;11.308;2022-09-03T15:55:00;27.30;68.30
55135;DHT22;41031;44.750;11.308;2022-09-03T15:57:40;27.20;68.70
55135;DHT22;41031;44.750;11.308;2022-09-03T16:00:15;27.20;68.70
55135;DHT22;41031;44.750;11.308;2022-09-03T16:03:15;27.10;68.50
55135;DHT22;41031;44.750;11.308;2022-09-03T16:05:56;27.10;68.60
55135;DHT22;41031;44.750;11.308;2022-09-03T16:08:51;27.10;68.30
55135;DHT22;41031;44.750;11.308;2022-09-03T16:11:37;27.10;68.60
55135;DHT22;41031;44.750;11.308;2022-09-03T16:14:37;27.10;68.90
55135;DHT22;41031;44.750;11.308;2022-09-03T16:22:31;27.00;68.20
55135;DHT22;41031;44.750;11.308;2022-09-03T16:42:10;26.70;69.00
55135;DHT22;41031;44.750;11.308;2022-09-03T16:55:47;26.40;70.20
55135;DHT22;41031;44.750;11.308;2022-09-03T16:59:03;26.30;70.50
55135;DHT22;41031;44.750;11.308;2022-09-03T17:06:46;26.20;71.80
55135;DHT22;41031;44.750;11.308;2022-09-03T17:25:50;25.80;75.00
55135;DHT22;41031;44.750;11.308;2022-09-03T17:31:22;25.70;75.70
55135;DHT22;41031;44.750;11.308;2022-09-03T17:33:56;25.70;75.90
55135;DHT22;41031;44.750;11.308;2022-09-03T17:36:28;25.60;76.10
55135;DHT22;41031;44.750;11.308;2022-09-03T17:39:05;25.60;76.40
55135;DHT22;41031;44.750;11.308;2022-09-03T17:41:52;25.50;76.60
55135;DHT22;41031;44.750;11.308;2022-09-03T17:47:16;25.40;77.00
55135;DHT22;41031;44.750;11.308;2022-09-03T17:49:58;25.40;77.20
55135;DHT22;41031;44.750;11.308;2022-09-03T17:55:12;25.30;77.60
55135;DHT22;41031;44.750;11.308;2022-09-03T17:57:46;25.20;77.90
55135;DHT22;41031;44.750;11.308;2022-09-03T18:00:42;25.20;78.00
55135;DHT22;41031;44.750;11.308;2022-09-03T18:04:10;25.20;78.20
55135;DHT22;41031;44.750;11.308;2022-09-03T18:06:10;25.10;78.30
55135;DHT22;41031;44.750;11.308;2022-09-03T18:09:04;25.10;78.40
55135;DHT22;41031;44.750;11.308;2022-09-03T18:11:37;25.00;78.60
55135;DHT22;41031;44.750;11.308;2022-09-03T18:14:14;25.00;78.80
55135;DHT22;41031;44.750;11.308;2022-09-03T18:16:51;25.00;78.80
55135;DHT22;41031;44.750;11.308;2022-09-03T18:19:49;25.00;78.90
55135;DHT22;41031;44.750;11.308;2022-09-03T18:22:47;25.00;79.00
55135;DHT22;41031;44.750;11.308;2022-09-03T18:25:35;24.90;79.10
55135;DHT22;41031;44.750;11.308;2022-09-03T18:28:39;24.90;79.10
55135;DHT22;41031;44.750;11.308;2022-09-03T18:31:26;24.80;78.90
55135;DHT22;41031;44.750;11.308;2022-09-03T18:34:12;24.80;78.80
55135;DHT22;41031;44.750;11.308;2022-09-03T18:36:58;24.80;78.90
55135;DHT22;41031;44.750;11.308;2022-09-03T18:39:45;24.70;78.90
55135;DHT22;41031;44.750;11.308;2022-09-03T18:42:55;24.60;78.90
55135;DHT22;41031;44.750;11.308;2022-09-03T18:52:08;24.60;78.90
55135;DHT22;41031;44.750;11.308;2022-09-03T18:55:00;24.50;79.00
55135;DHT22;41031;44.750;11.308;2022-09-03T19:07:20;24.50;79.70
55135;DHT22;41031;44.750;11.308;2022-09-03T19:10:21;24.40;79.40
55135;DHT22;41031;44.750;11.308;2022-09-03T19:16:18;24.30;79.40
55135;DHT22;41031;44.750;11.308;2022-09-03T19:22:11;24.20;80.00
55135;DHT22;41031;44.750;11.308;2022-09-03T19:25:12;24.10;80.00
55135;DHT22;41031;44.750;11.308;2022-09-03T19:43:24;24.00;80.60
55135;DHT22;41031;44.750;11.308;2022-09-03T19:49:47;23.90;81.10
55135;DHT22;41031;44.750;11.308;2022-09-03T19:53:04;23.80;81.40
55135;DHT22;41031;44.750;11.308;2022-09-03T19:55:56;23.80;81.70
55135;DHT22;41031;44.750;11.308;2022-09-03T19:58:47;23.70;81.80
55135;DHT22;41031;44.750;11.308;2022-09-03T20:01:35;23.70;81.90
55135;DHT22;41031;44.750;11.308;2022-09-03T20:04:34;23.70;82.10
55135;DHT22;41031;44.750;11.308;2022-09-03T20:07:20;23.70;82.40
55135;DHT22;41031;44.750;11.308;2022-09-03T20:10:12;23.60;82.50
55135;DHT22;41031;44.750;11.308;2022-09-03T20:13:14;23.60;82.40
55135;DHT22;41031;44.750;11.308;2022-09-03T20:21:13;23.50;82.30
55135;DHT22;41031;44.750;11.308;2022-09-03T20:24:34;23.50;83.10
55135;DHT22;41031;44.750;11.308;2022-09-03T20:32:12;23.40;82.80
55135;DHT22;41031;44.750;11.308;2022-09-03T20:37:40;23.30;83.10
55135;DHT22;41031;44.750;11.308;2022-09-03T20:51:43;23.20;83.50
55135;DHT22;41031;44.750;11.308;2022-09-03T20:54:20;23.20;83.50
55135;DHT22;41031;44.750;11.308;2022-09-03T21:02:10;23.10;83.90
55135;DHT22;41031;44.750;11.308;2022-09-03T21:04:50;23.10;84.20
55135;DHT22;41031;44.750;11.308;2022-09-03T21:10:28;23.10;84.70
55135;DHT22;41031;44.750;11.308;2022-09-03T21:23:20;22.90;85.00
55135;DHT22;41031;44.750;11.308;2022-09-03T21:26:09;23.00;85.20
55135;DHT22;41031;44.750;11.308;2022-09-03T21:28:43;22.90;85.30
55135;DHT22;41031;44.750;11.308;2022-09-03T21:31:53;22.90;85.30
55135;DHT22;41031;44.750;11.308;2022-09-03T21:36:56;22.80;85.70
55135;DHT22;41031;44.750;11.308;2022-09-03T21:39:28;22.80;86.00
55135;DHT22;41031;44.750;11.308;2022-09-03T21:42:08;22.80;86.30
55135;DHT22;41031;44.750;11.308;2022-09-03T21:47:12;22.80;86.50
55135;DHT22;41031;44.750;11.308;2022-09-03T21:52:16;22.70;86.60
55135;DHT22;41031;44.750;11.308;2022-09-03T21:54:45;22.70;86.60
55135;DHT22;41031;44.750;11.308;2022-09-03T22:02:26;22.60;87.00
55135;DHT22;41031;44.750;11.308;2022-09-03T22:04:55;22.60;87.20
55135;DHT22;41031;44.750;11.308;2022-09-03T22:10:23;22.50;87.50
55135;DHT22;41031;44.750;11.308;2022-09-03T22:13:20;22.50;87.60
55135;DHT22;41031;44.750;11.308;2022-09-03T22:15:49;22.50;87.80
55135;DHT22;41031;44.750;11.308;2022-09-03T22:18:30;22.50;88.00
55135;DHT22;41031;44.750;11.308;2022-09-03T22:24:09;22.50;88.10
55135;DHT22;41031;44.750;11.308;2022-09-03T22:29:26;22.40;89.00
55135;DHT22;41031;44.750;11.308;2022-09-03T22:40:36;22.20;89.10
55135;DHT22;41031;44.750;11.308;2022-09-03T22:45:58;22.20;89.20
55135;DHT22;41031;44.750;11.308;2022-09-03T22:51:02;22.20;89.50
55135;DHT22;41031;44.750;11.308;2022-09-03T22:56:16;22.10;90.00
55135;DHT22;41031;44.750;11.308;2022-09-03T22:58:53;22.10;90.00
55135;DHT22;41031;44.750;11.308;2022-09-03T23:04:35;22.10;90.00